Terminal Aerodrome Forecast
Issued by NWS Tampa Bay Area, FL

Home | Current Version | Previous Version | Text Only | Print | Product List | Glossary On
Versions: 1 2 3 4 5 6 7 8 9 10 11 12 13 14 15 16 17 18
000
FTUS42 KTBW 300312 AAA
TAFSRQ
TAF AMD
KSRQ 300312Z 3003/3024 08011KT P6SM FEW010 BKN200
     FM300600 08006KT P6SM FEW010 BKN200
     FM301600 12012KT 6SM SHRA VCTS SCT018CB BKN040=

USA.gov is the U.S. government's official web portal to all federal, state and local government web resources and services.